Time;durP1;ratioP1;P1;durP2;ratioP2;P2;SDS_P1;SDS_P2;PMS_P1;PMS_P2;Temp;Humidity;BMP_temperature;BMP_pressure;BME280_temperature;BME280_humidity;BME280_pressure;Samples;Min_cycle;Max_cycle;Signal;HPM_P1;HPM_P2
2021/11/16 00:02:07;;;;;;;14.45;10.02;;;;;;;6.05;73.33;94433.69;5111050;28;20030;-48
2021/11/16 00:04:32;;;;;;;16.30;9.70;;;;;;;5.86;73.73;94410.72;5111341;28;20099;-47
2021/11/16 00:06:58;;;;;;;16.77;9.73;;;;;;;6.09;73.11;94433.44;5111150;28;20477;-47
2021/11/16 00:09:24;;;;;;;14.63;10.48;;;;;;;6.13;72.48;94424.97;5092913;28;20110;-47
2021/11/16 00:11:49;;;;;;;20.48;11.50;;;;;;;6.12;72.67;94432.47;5111234;28;20030;-49
2021/11/16 00:14:18;;;;;;;18.80;13.18;;;;;;;6.13;72.52;94427.72;5110913;28;20466;-48
2021/11/16 00:16:43;;;;;;;18.50;11.23;;;;;;;6.15;72.62;94425.97;5092658;28;20423;-48
2021/11/16 00:19:13;;;;;;;17.05;12.00;;;;;;;6.20;72.92;94432.69;5111173;28;20098;-47
2021/11/16 00:21:43;;;;;;;15.23;9.02;;;;;;;6.23;72.17;94427.00;5110372;28;20050;-46
2021/11/16 00:24:13;;;;;;;15.38;9.30;;;;;;;6.22;72.27;94435.69;5110710;28;20019;-46
2021/11/16 00:26:39;;;;;;;15.60;10.65;;;;;;;6.16;72.87;94438.44;5110803;28;20019;-46
2021/11/16 00:29:05;;;;;;;17.00;10.75;;;;;;;6.17;72.87;94436.44;5110637;28;20019;-47
2021/11/16 00:31:34;;;;;;;14.98;8.95;;;;;;;6.23;72.88;94431.72;5110953;28;20019;-45
2021/11/16 00:34:00;;;;;;;12.27;8.52;;;;;;;6.06;73.08;94426.22;5110951;28;20085;-46
2021/11/16 00:36:25;;;;;;;14.13;7.95;;;;;;;6.25;72.50;94434.72;5110866;28;20030;-47
2021/11/16 00:38:51;;;;;;;13.63;8.38;;;;;;;6.11;73.12;94431.69;5110724;28;20298;-47
2021/11/16 00:41:17;;;;;;;14.93;8.63;;;;;;;6.17;73.09;94430.97;5110693;28;20024;-48
2021/11/16 00:43:42;;;;;;;18.15;9.50;;;;;;;6.14;72.76;94421.75;5092087;28;20527;-47
2021/11/16 00:46:08;;;;;;;14.48;8.60;;;;;;;6.25;72.67;94431.97;5110434;28;20044;-48
2021/11/16 00:48:34;;;;;;;16.40;9.57;;;;;;;6.20;72.91;94433.47;5110323;28;20420;-49
2021/11/16 00:51:02;;;;;;;13.10;8.30;;;;;;;6.17;72.82;94430.97;5110533;28;20024;-48
2021/11/16 00:53:31;;;;;;;16.85;9.75;;;;;;;6.20;72.82;94435.44;5110822;28;20019;-48
2021/11/16 00:55:57;;;;;;;13.85;9.30;;;;;;;6.23;72.66;94437.19;5110650;28;20028;-49
2021/11/16 00:58:23;;;;;;;15.95;9.07;;;;;;;6.19;72.78;94431.97;5110319;28;20451;-50
2021/11/16 01:00:49;;;;;;;14.50;8.63;;;;;;;6.15;72.54;94433.47;5110380;28;20089;-49
2021/11/16 01:03:15;;;;;;;14.82;9.32;;;;;;;6.25;72.87;94435.47;5110752;28;20027;-48
2021/11/16 01:05:41;;;;;;;18.38;13.18;;;;;;;6.20;72.94;94440.94;5110372;28;20103;-48
2021/11/16 01:08:08;;;;;;;15.88;10.07;;;;;;;6.21;72.66;94442.44;5110283;28;20115;-47
2021/11/16 01:10:35;;;;;;;16.10;10.15;;;;;;;6.17;73.22;94436.44;5110325;28;20076;-49
2021/11/16 01:13:00;;;;;;;14.80;9.10;;;;;;;6.11;73.13;94441.91;5110605;28;20028;-48
2021/11/16 01:15:26;;;;;;;12.98;8.90;;;;;;;6.23;72.75;94437.19;5110592;28;20028;-48
2021/11/16 01:17:51;;;;;;;14.85;8.75;;;;;;;6.00;72.84;94414.47;5110116;28;20055;-48
2021/11/16 01:20:18;;;;;;;13.50;9.18;;;;;;;6.18;72.70;94444.19;5110496;28;20077;-47
2021/11/16 01:22:46;;;;;;;13.23;8.60;;;;;;;6.37;72.37;94441.69;5110552;28;20020;-48
2021/11/16 01:25:13;;;;;;;14.25;8.90;;;;;;;6.40;71.88;94446.19;5110180;28;20108;-49
2021/11/16 01:27:40;;;;;;;14.18;8.60;;;;;;;6.45;71.79;94443.47;5110226;28;20027;-48
2021/11/16 01:30:12;;;;;;;11.80;8.20;;;;;;;6.38;72.25;94440.47;5110066;28;20575;-48
2021/11/16 01:32:41;;;;;;;12.73;8.48;;;;;;;6.32;72.34;94439.72;5110478;28;20110;-47
2021/11/16 01:35:07;;;;;;;;;;;;;;;6.35;72.23;94444.94;5113874;28;20027;-49
2021/11/16 01:37:33;;;;;;;13.07;8.63;;;;;;;6.28;72.15;94441.97;5114042;28;20436;-51
2021/11/16 01:39:58;;;;;;;14.15;9.02;;;;;;;6.31;72.22;94438.19;5114212;28;20055;-47
2021/11/16 01:42:24;;;;;;;18.70;11.43;;;;;;;6.36;72.18;94435.47;5113541;28;20481;-47
2021/11/16 01:44:51;;;;;;;18.35;11.70;;;;;;;6.23;72.16;94437.97;5113589;28;20023;-46
2021/11/16 01:47:17;;;;;;;14.10;9.90;;;;;;;6.19;72.57;94431.22;5113541;28;20019;-46
2021/11/16 01:49:43;;;;;;;17.60;9.60;;;;;;;6.22;72.77;94435.69;5113603;28;20559;-47
2021/11/16 01:52:09;;;;;;;16.30;8.93;;;;;;;6.15;73.05;94430.72;5113665;28;20111;-47
2021/11/16 01:54:35;;;;;;;14.18;9.20;;;;;;;6.22;72.53;94433.72;5113897;28;20114;-48
2021/11/16 01:57:01;;;;;;;14.35;9.35;;;;;;;6.03;72.91;94422.47;5113852;28;20030;-46
2021/11/16 01:59:27;;;;;;;16.83;10.25;;;;;;;6.21;72.43;94429.47;5113590;28;20528;-46
2021/11/16 02:01:54;;;;;;;14.90;9.88;;;;;;;6.26;72.62;94430.75;5113723;28;20032;-46
2021/11/16 02:04:20;;;;;;;16.15;10.48;;;;;;;6.22;72.50;94433.72;5113428;28;20023;-47
2021/11/16 02:06:46;;;;;;;16.23;10.75;;;;;;;6.22;72.56;94425.47;5113748;28;20023;-46
2021/11/16 02:09:13;;;;;;;13.27;9.40;;;;;;;6.03;72.72;94383.34;5113476;28;20046;-47
2021/11/16 02:11:39;;;;;;;18.70;10.52;;;;;;;6.23;72.91;94424.25;5113623;28;20035;-47
2021/11/16 02:14:08;;;;;;;59.08;32.67;;;;;;;6.19;72.72;94423.75;5113397;28;20020;-47
2021/11/16 02:16:35;;;;;;;29.23;18.98;;;;;;;6.17;73.32;94425.50;5095283;28;20054;-46
2021/11/16 02:19:02;;;;;;;27.70;14.55;;;;;;;6.17;72.51;94417.25;5113406;28;20031;-47
2021/11/16 02:21:28;;;;;;;39.58;21.10;;;;;;;6.15;72.75;94427.97;5113444;28;20030;-47
2021/11/16 02:23:55;;;;;;;33.72;17.48;;;;;;;6.24;72.61;94425.72;5113351;28;20023;-46
2021/11/16 02:26:20;;;;;;;53.55;29.40;;;;;;;6.29;72.81;94424.25;5113030;28;20016;-47
2021/11/16 02:28:46;;;;;;;122.40;61.65;;;;;;;6.13;73.22;94427.72;5113346;28;20020;-47
2021/11/16 02:31:14;;;;;;;66.55;34.47;;;;;;;6.08;73.55;94426.47;5112893;28;20019;-46
2021/11/16 02:33:40;;;;;;;44.40;23.27;;;;;;;6.13;73.42;94418.25;5113253;28;20393;-47
2021/11/16 02:36:06;;;;;;;19.88;12.73;;;;;;;6.18;73.33;94419.50;5112962;28;20027;-46
2021/11/16 02:38:33;;;;;;;21.30;12.32;;;;;;;6.24;72.78;94427.75;5112902;28;20107;-45
2021/11/16 02:40:59;;;;;;;18.77;10.65;;;;;;;6.17;72.65;94412.53;5112558;28;20019;-45
2021/11/16 02:43:25;;;;;;;21.08;11.57;;;;;;;6.15;72.72;94408.78;5112328;28;20039;-45
2021/11/16 02:45:51;;;;;;;16.35;10.13;;;;;;;6.15;72.67;94412.25;5112234;28;20044;-46
2021/11/16 02:48:17;;;;;;;50.47;28.85;;;;;;;6.20;72.52;94411.53;5112795;28;20031;-45
2021/11/16 02:50:46;;;;;;;29.42;17.70;;;;;;;6.11;73.23;94403.53;5112550;28;20420;-45
2021/11/16 02:53:11;;;;;;;;;;;;;;;6.17;72.89;94409.78;5113391;28;20028;-46
2021/11/16 02:55:38;;;;;;;26.42;15.02;;;;;;;6.18;72.74;94410.50;5111317;28;19965;-46
2021/11/16 02:58:04;;;;;;;13.05;9.98;;;;;;;6.06;72.96;94407.03;5092027;28;20535;-47
2021/11/16 03:00:30;;;;;;;15.75;10.07;;;;;;;6.20;72.81;94400.56;5092328;28;20111;-46
2021/11/16 03:02:55;;;;;;;22.88;15.60;;;;;;;6.14;73.29;94408.03;5092664;28;20039;-46
2021/11/16 03:05:21;;;;;;;22.38;13.88;;;;;;;6.03;73.70;94405.28;5091907;28;20028;-46
2021/11/16 03:07:48;;;;;;;18.42;11.55;;;;;;;6.07;73.33;94406.53;5092138;28;20047;-47
2021/11/16 03:10:17;;;;;;;19.83;11.77;;;;;;;6.13;72.91;94411.28;5091684;28;20028;-47
2021/11/16 03:12:43;;;;;;;16.70;9.77;;;;;;;6.11;72.60;94411.75;5091785;28;20031;-48
2021/11/16 03:15:09;;;;;;;20.83;12.25;;;;;;;6.13;73.00;94408.53;5092011;28;20032;-46
2021/11/16 03:17:34;;;;;;;30.27;15.15;;;;;;;6.01;72.94;94410.50;5099717;28;20076;-46
2021/11/16 03:20:00;;;;;;;24.23;14.73;;;;;;;5.98;73.53;94411.47;5112236;28;20031;-47
2021/11/16 03:22:33;;;;;;;20.00;13.13;;;;;;;6.13;73.37;94408.53;5111820;28;20035;-45
2021/11/16 03:24:59;;;;;;;23.58;14.73;;;;;;;6.15;73.37;94403.31;5112215;28;20032;-47
2021/11/16 03:27:31;;;;;;;30.80;17.00;;;;;;;5.98;73.11;94384.81;5111917;28;20028;-46
2021/11/16 03:29:58;;;;;;;15.27;9.48;;;;;;;6.06;73.20;94391.31;5111767;28;20527;-46
2021/11/16 03:32:30;;;;;;;15.45;9.95;;;;;;;6.09;73.41;94400.53;5111742;28;20496;-47
2021/11/16 03:34:56;;;;;;;14.88;9.43;;;;;;;6.11;73.01;94404.28;5111650;28;20034;-47
2021/11/16 03:37:24;;;;;;;17.52;10.02;;;;;;;6.16;73.07;94400.06;5111545;28;20035;-48
2021/11/16 03:39:50;;;;;;;18.40;9.48;;;;;;;6.18;73.23;94402.28;5110034;28;20047;-45
2021/11/16 03:42:16;;;;;;;15.98;10.40;;;;;;;6.04;73.29;94404.75;5092554;28;20066;-44
2021/11/16 03:44:41;;;;;;;14.05;8.65;;;;;;;6.11;72.47;94393.31;5110597;28;20055;-47
2021/11/16 03:47:07;;;;;;;14.90;9.40;;;;;;;6.20;72.80;94405.28;5111351;28;20043;-44
2021/11/16 03:49:32;;;;;;;17.17;10.65;;;;;;;5.99;72.53;94380.09;5111607;28;20393;-45
2021/11/16 03:51:58;;;;;;;15.02;10.10;;;;;;;6.18;72.08;94394.81;5111635;28;20027;-46
2021/11/16 03:54:23;;;;;;;14.27;9.98;;;;;;;6.08;72.41;94408.03;5111419;28;20051;-48
2021/11/16 03:56:50;;;;;;;14.25;8.90;;;;;;;6.00;72.84;94412.47;5110425;28;20078;-47
2021/11/16 03:59:15;;;;;;;16.85;9.68;;;;;;;6.00;72.99;94409.00;5111199;28;20027;-48
2021/11/16 04:01:41;;;;;;;14.40;9.18;;;;;;;6.07;72.77;94397.53;5111122;28;20027;-47
2021/11/16 04:04:07;;;;;;;14.80;9.38;;;;;;;6.05;71.84;94383.59;5111351;28;20084;-48
2021/11/16 04:06:33;;;;;;;14.88;9.52;;;;;;;5.83;72.10;94367.06;5111029;28;20688;-46
2021/11/16 04:08:59;;;;;;;13.68;9.43;;;;;;;6.08;72.06;94405.28;5111425;28;20019;-45
2021/11/16 04:11:25;;;;;;;16.52;9.57;;;;;;;6.05;72.53;94398.06;5110982;28;20062;-44
2021/11/16 04:13:51;;;;;;;17.02;9.88;;;;;;;5.90;73.01;94396.78;5111254;28;20037;-46
2021/11/16 04:16:16;;;;;;;16.30;10.93;;;;;;;5.99;72.95;94400.03;5111047;28;20484;-49
2021/11/16 04:18:43;;;;;;;14.75;9.45;;;;;;;5.90;73.01;94400.28;5111141;28;20131;-46
2021/11/16 04:21:09;;;;;;;15.57;9.30;;;;;;;5.91;73.31;94401.03;5111220;28;20051;-46
2021/11/16 04:23:35;;;;;;;14.10;8.57;;;;;;;5.93;73.19;94407.47;5110833;28;20532;-46
2021/11/16 04:26:00;;;;;;;14.75;9.27;;;;;;;5.97;72.79;94407.25;5111034;28;20024;-46
2021/11/16 04:28:26;;;;;;;15.52;10.15;;;;;;;5.93;72.87;94404.00;5111063;28;20400;-46
2021/11/16 04:30:52;;;;;;;15.02;9.40;;;;;;;5.98;72.79;94400.50;5110739;28;20463;-45
2021/11/16 04:33:19;;;;;;;13.55;9.45;;;;;;;6.00;73.06;94395.28;5110644;28;20031;-45
2021/11/16 04:35:45;;;;;;;13.73;8.50;;;;;;;5.95;72.60;94396.78;5109330;28;20023;-45
2021/11/16 04:38:12;;;;;;;13.57;9.32;;;;;;;6.00;72.41;94401.53;5101271;28;20024;-45
2021/11/16 04:40:41;;;;;;;16.20;9.30;;;;;;;6.04;72.59;94391.06;5090516;28;20020;-47
2021/11/16 04:43:10;;;;;;;14.18;8.20;;;;;;;6.08;72.61;94388.09;5096399;28;20027;-47
2021/11/16 04:45:37;;;;;;;12.65;9.23;;;;;;;6.22;72.33;94376.13;5103793;28;20044;-46
2021/11/16 04:48:12;;;;;;;11.63;8.07;;;;;;;6.13;71.88;94378.38;5095271;28;20108;-45
2021/11/16 05:03:58;;;;;;;12.38;8.50;;;;;;;5.85;71.70;94387.28;5110521;28;20030;-47
2021/11/16 05:06:24;;;;;;;10.95;7.90;;;;;;;5.96;71.29;94398.28;5110104;28;20408;-47
2021/11/16 05:08:51;;;;;;;16.38;10.30;;;;;;;5.96;71.20;94400.25;5113045;28;20024;-46
2021/11/16 05:11:19;;;;;;;15.70;9.20;;;;;;;5.98;71.10;94401.28;5114825;28;20027;-46
2021/11/16 05:13:45;;;;;;;14.35;9.40;;;;;;;5.94;71.32;94400.78;5114501;28;20406;-48
2021/11/16 05:16:12;;;;;;;14.18;9.15;;;;;;;6.02;70.89;94403.78;5114582;28;20092;-46
2021/11/16 05:18:39;;;;;;;13.57;8.65;;;;;;;6.05;70.66;94400.03;5114298;28;20050;-46
2021/11/16 05:21:04;;;;;;;17.45;9.35;;;;;;;6.02;70.38;94368.16;5114294;28;20039;-48
2021/11/16 05:23:35;;;;;;;17.20;9.82;;;;;;;6.13;70.28;94396.31;5114315;28;20023;-47
2021/11/16 05:26:00;;;;;;;13.77;9.05;;;;;;;5.91;70.82;94379.09;5114179;28;20038;-46
2021/11/16 05:28:26;;;;;;;13.23;8.73;;;;;;;6.16;70.70;94386.34;5113915;28;20031;-48
2021/11/16 05:30:51;;;;;;;13.00;8.98;;;;;;;6.10;70.74;94391.84;5114459;28;20027;-46
2021/11/16 05:33:17;;;;;;;21.95;11.15;;;;;;;6.22;70.65;94400.03;5114290;28;20034;-46
2021/11/16 05:35:42;;;;;;;15.07;10.05;;;;;;;6.14;70.49;94408.03;5114307;28;20541;-47
2021/11/16 05:38:39;;;;;;;14.05;9.30;;;;;;;6.15;70.14;94390.31;5113952;28;20420;-46
2021/11/16 05:41:05;;;;;;;13.43;8.70;;;;;;;6.18;70.38;94405.03;5114012;28;20035;-46
2021/11/16 05:43:31;;;;;;;13.52;9.93;;;;;;;6.22;70.35;94408.28;5113605;28;20030;-46
2021/11/16 05:45:57;;;;;;;11.77;8.85;;;;;;;6.22;70.62;94411.00;5113815;28;20050;-46
2021/11/16 05:48:24;;;;;;;15.68;10.85;;;;;;;6.23;71.00;94415.28;5113710;28;20061;-46
2021/11/16 05:50:50;;;;;;;23.90;14.68;;;;;;;6.24;70.96;94414.75;5109343;28;20032;-46
2021/11/16 05:53:16;;;;;;;20.42;12.82;;;;;;;6.25;70.73;94426.47;5103687;28;20553;-46
2021/11/16 05:55:46;;;;;;;18.05;11.88;;;;;;;6.31;70.84;94428.00;5093182;28;20085;-47
2021/11/16 05:58:19;;;;;;;19.30;11.00;;;;;;;6.33;71.17;94422.75;5093200;28;20028;-47
2021/11/16 06:00:46;;;;;;;12.52;9.95;;;;;;;6.31;71.08;94419.00;5093110;28;20024;-47
2021/11/16 06:03:12;;;;;;;16.50;11.25;;;;;;;6.32;71.18;94420.50;5112114;28;20115;-48
2021/11/16 06:05:38;;;;;;;18.05;11.32;;;;;;;6.30;71.31;94426.50;5107593;28;20481;-46
2021/11/16 06:08:05;;;;;;;25.30;13.88;;;;;;;6.20;71.76;94416.25;5112744;28;20023;-50
2021/11/16 06:10:30;;;;;;;31.67;15.65;;;;;;;6.41;71.80;94437.47;5107639;28;20084;-47
2021/11/16 06:12:56;;;;;;;50.30;25.77;;;;;;;6.34;72.25;94435.22;5112103;28;20027;-50
2021/11/16 06:15:21;;;;;;;110.68;70.80;;;;;;;6.39;72.18;94437.22;5103706;28;20028;-47
2021/11/16 06:17:48;;;;;;;64.35;36.47;;;;;;;6.44;72.36;94425.50;5101689;28;20489;-48
2021/11/16 06:20:18;;;;;;;32.67;20.83;;;;;;;6.64;71.81;94438.22;5108318;28;20038;-46
2021/11/16 06:22:45;;;;;;;29.25;16.52;;;;;;;6.59;71.62;94447.97;5103155;28;20032;-50
2021/11/16 06:25:10;;;;;;;28.80;16.88;;;;;;;6.60;72.45;94445.97;5093249;28;20024;-46
2021/11/16 06:27:35;;;;;;;32.10;19.38;;;;;;;6.67;72.11;94448.22;5092000;28;20047;-46
2021/11/16 06:30:02;;;;;;;39.13;23.00;;;;;;;6.61;72.42;94439.22;5091915;28;20032;-48
2021/11/16 06:32:27;;;;;;;57.97;32.97;;;;;;;6.78;71.74;94459.16;5091866;28;20053;-48
2021/11/16 06:34:53;;;;;;;51.20;25.05;;;;;;;6.72;71.95;94455.69;5091684;28;20064;-48
2021/11/16 06:37:18;;;;;;;38.70;20.00;;;;;;;6.75;71.89;94455.44;5091701;28;20039;-50
2021/11/16 06:39:44;;;;;;;28.02;15.10;;;;;;;6.76;71.77;94445.97;5091681;28;20031;-46
2021/11/16 06:42:13;;;;;;;25.00;17.17;;;;;;;6.89;71.48;94448.94;5091604;28;20154;-45
2021/11/16 06:44:39;;;;;;;22.33;14.63;;;;;;;7.02;71.24;94439.47;5110192;28;20042;-49
2021/11/16 06:47:05;;;;;;;24.70;15.10;;;;;;;7.08;71.08;94443.66;5111278;28;20047;-46
2021/11/16 06:49:30;;;;;;;19.33;12.70;;;;;;;7.11;70.88;94448.16;5105142;28;20059;-46
2021/11/16 06:51:57;;;;;;;16.95;10.82;;;;;;;7.20;70.46;94445.16;5107688;28;20079;-46
2021/11/16 06:54:24;;;;;;;17.17;10.70;;;;;;;7.15;70.56;94442.41;5109583;28;20114;-46
2021/11/16 06:56:51;;;;;;;20.10;12.73;;;;;;;7.15;70.22;94428.66;5109558;28;20078;-47
2021/11/16 06:59:18;;;;;;;16.02;11.25;;;;;;;7.24;70.19;94436.66;5109553;28;20528;-46
2021/11/16 07:01:44;;;;;;;21.48;11.13;;;;;;;7.20;70.37;94436.91;5109724;28;20031;-45
2021/11/16 07:04:10;;;;;;;13.82;9.68;;;;;;;7.13;70.86;94439.41;5108872;28;20481;-44
2021/11/16 07:06:38;;;;;;;15.68;9.50;;;;;;;6.98;71.54;94439.69;5104022;28;20031;-45
2021/11/16 07:09:05;;;;;;;16.85;10.05;;;;;;;7.01;71.38;94437.94;5104663;28;20428;-43
2021/11/16 07:11:30;;;;;;;14.77;9.10;;;;;;;7.02;71.11;94423.72;5108968;28;20034;-44
2021/11/16 07:14:05;;;;;;;14.98;8.70;;;;;;;7.11;71.30;94445.41;5108927;28;20047;-44
2021/11/16 07:16:34;;;;;;;16.63;12.18;;;;;;;7.08;71.35;94448.44;5109189;28;20580;-45
2021/11/16 07:19:02;;;;;;;15.10;8.97;;;;;;;7.07;72.01;94442.19;5108605;28;20031;-47
2021/11/16 07:21:29;;;;;;;25.38;9.60;;;;;;;7.16;72.18;94444.66;5099459;28;20031;-46
2021/11/16 07:24:08;;;;;;;21.27;11.27;;;;;;;7.11;71.34;94445.41;5107810;28;20026;-46
2021/11/16 07:26:39;;;;;;;17.50;10.13;;;;;;;7.05;71.58;94452.94;5107211;28;20033;-47
2021/11/16 07:29:07;;;;;;;22.40;14.85;;;;;;;7.10;71.18;94449.44;5100758;28;20050;-46
2021/11/16 07:31:36;;;;;;;42.38;14.00;;;;;;;7.16;71.18;94452.91;5104478;28;20114;-48
2021/11/16 07:34:16;;;;;;;25.48;15.02;;;;;;;7.20;70.82;94453.41;5102297;28;20029;-46
2021/11/16 07:36:56;;;;;;;19.98;11.73;;;;;;;7.16;71.49;94450.16;5088158;28;20170;-47
2021/11/16 07:39:23;;;;;;;19.77;11.00;;;;;;;7.18;70.60;94460.63;5070155;28;20136;-46
2021/11/16 07:41:50;;;;;;;15.93;10.68;;;;;;;7.09;70.55;94461.66;5101254;28;20023;-50
2021/11/16 07:44:16;;;;;;;23.83;13.63;;;;;;;7.23;70.50;94457.91;5106544;28;20027;-49
2021/11/16 07:46:55;;;;;;;21.17;14.30;;;;;;;7.30;70.29;94460.09;5087950;28;20042;-51
2021/11/16 07:49:22;;;;;;;26.73;13.65;;;;;;;7.35;70.70;94455.84;5099430;28;20118;-49
2021/11/16 07:51:48;;;;;;;20.00;13.23;;;;;;;7.40;70.82;94447.59;5107936;28;20091;-48
2021/11/16 07:54:19;;;;;;;13.18;9.00;;;;;;;7.36;70.32;94457.38;5108512;28;20027;-48
2021/11/16 07:56:45;;;;;;;22.23;12.70;;;;;;;7.24;70.67;94451.13;5108321;28;20031;-50
2021/11/16 07:59:11;;;;;;;15.85;10.45;;;;;;;7.25;71.87;94449.16;5108387;28;20079;-45
2021/11/16 08:04:23;;;;;;;14.23;10.18;;;;;;;7.57;70.47;94437.31;5108157;28;20028;-45
2021/11/16 08:09:42;;;;;;;22.70;15.15;;;;;;;7.63;69.78;94438.03;5078451;28;20088;-45
2021/11/16 08:14:46;;;;;;;16.95;11.60;;;;;;;7.87;69.73;94439.41;5108151;28;20030;-47
2021/11/16 08:17:13;;;;;;;15.52;10.40;;;;;;;7.96;69.03;94447.38;5108101;28;20027;-46
2021/11/16 08:19:41;;;;;;;12.07;8.43;;;;;;;8.02;68.91;94442.59;5108275;28;20033;-46
2021/11/16 08:22:10;;;;;;;21.05;12.07;;;;;;;7.99;67.88;94438.13;5107634;28;20062;-45
2021/11/16 08:24:39;;;;;;;23.48;14.35;;;;;;;8.03;68.22;94444.09;5107775;28;20097;-46
2021/11/16 08:27:11;;;;;;;17.83;11.32;;;;;;;7.87;67.92;94431.19;5107838;28;20424;-46
2021/11/16 08:29:39;;;;;;;17.65;11.63;;;;;;;7.75;68.30;94432.50;5089331;28;20032;-46
2021/11/16 08:32:11;;;;;;;25.83;11.07;;;;;;;7.84;68.82;94445.94;5102203;28;20035;-47
2021/11/16 08:34:48;;;;;;;19.88;11.50;;;;;;;7.85;68.61;94439.94;5080465;28;20035;-46
2021/11/16 08:37:15;;;;;;;18.42;10.63;;;;;;;7.81;68.77;94439.47;5087226;28;20036;-46
2021/11/16 08:39:47;;;;;;;17.15;10.38;;;;;;;7.70;69.35;94420.25;5104286;28;20027;-45
2021/11/16 08:42:24;;;;;;;13.88;9.02;;;;;;;7.68;69.30;94435.75;5107202;28;20159;-44
2021/11/16 08:45:00;;;;;;;20.98;11.57;;;;;;;7.55;70.01;94434.31;5087705;28;20417;-46
2021/11/16 08:47:33;;;;;;;18.88;10.80;;;;;;;7.65;70.08;94429.28;5087173;28;20032;-44
2021/11/16 08:49:59;;;;;;;19.65;12.80;;;;;;;7.70;70.05;94439.50;5086984;28;20141;-44
2021/11/16 08:52:28;;;;;;;19.83;10.32;;;;;;;7.78;69.48;94436.97;5085536;28;20032;-44
2021/11/16 08:54:55;;;;;;;17.00;10.52;;;;;;;7.84;69.80;94437.69;5086829;28;20039;-44
2021/11/16 08:57:22;;;;;;;17.08;10.10;;;;;;;7.82;69.13;94429.94;5086559;28;20040;-44
2021/11/16 08:59:48;;;;;;;18.05;10.30;;;;;;;7.76;69.97;94436.72;5086573;28;20032;-44
2021/11/16 09:02:14;;;;;;;14.02;9.40;;;;;;;7.72;69.87;94431.50;5086871;28;20039;-45
2021/11/16 09:04:42;;;;;;;17.95;9.93;;;;;;;7.79;69.58;94424.72;5068867;28;20039;-44
2021/11/16 09:07:18;;;;;;;24.33;13.18;;;;;;;7.87;69.62;94433.94;5087401;28;20413;-48
2021/11/16 09:10:10;;;;;;;24.75;14.88;;;;;;;7.91;70.08;94423.41;5087228;28;20554;-47
2021/11/16 09:12:51;;;;;;;33.47;17.90;;;;;;;8.01;69.67;94427.38;5086639;28;20024;-47
2021/11/16 09:15:22;;;;;;;19.52;11.95;;;;;;;7.99;69.15;94425.09;5086315;28;20030;-47
2021/11/16 09:17:48;;;;;;;16.80;10.15;;;;;;;8.06;69.57;94426.56;5096738;28;20117;-47
2021/11/16 09:20:18;;;;;;;20.48;12.68;;;;;;;8.14;69.14;94420.00;5106776;28;20063;-47
2021/11/16 09:22:44;;;;;;;21.05;13.32;;;;;;;7.95;69.22;94391.63;5106879;28;20039;-47
2021/11/16 09:25:39;;;;;;;18.35;11.93;;;;;;;8.14;69.64;94424.78;5106415;28;20512;-48
2021/11/16 09:28:44;;;;;;;22.95;12.57;;;;;;;8.28;68.44;94420.97;5084888;28;20040;-51
2021/11/16 09:31:56;;;;;;;22.55;12.68;;;;;;;8.19;69.01;94418.50;5106838;28;20043;-51
2021/11/16 09:34:32;;;;;;;17.25;11.32;;;;;;;8.26;69.92;94417.97;5105995;28;20096;-47
2021/11/16 09:37:01;;;;;;;21.23;13.18;;;;;;;8.19;69.05;94413.00;5106841;28;20436;-46
2021/11/16 09:39:31;;;;;;;23.10;13.23;;;;;;;8.18;69.54;94403.25;5106989;28;20153;-47
2021/11/16 09:42:01;;;;;;;18.75;11.48;;;;;;;8.15;69.04;94409.78;5107191;28;20038;-47
2021/11/16 09:44:30;;;;;;;20.85;12.45;;;;;;;8.13;69.21;94407.53;5106337;28;20032;-46
2021/11/16 09:46:58;;;;;;;;;;;;;;;8.01;69.61;94405.38;5106743;28;20036;-46
2021/11/16 09:49:32;;;;;;;18.17;10.40;;;;;;;8.08;69.12;94400.06;5106485;28;19939;-45
2021/11/16 09:52:07;;;;;;;16.02;9.65;;;;;;;7.95;69.45;94399.88;5105646;28;20039;-47
2021/11/16 09:54:46;;;;;;;17.13;11.07;;;;;;;8.02;69.81;94407.59;5107069;28;20031;-49
2021/11/16 09:57:13;;;;;;;18.83;12.57;;;;;;;7.86;69.48;94399.44;5110007;28;20031;-49
2021/11/16 09:59:43;;;;;;;15.25;10.50;;;;;;;7.92;68.65;94400.91;5110141;28;20770;-45
2021/11/16 10:02:16;;;;;;;15.65;10.05;;;;;;;7.80;68.76;94395.97;5110359;28;20042;-45
2021/11/16 10:04:48;;;;;;;16.55;10.30;;;;;;;7.70;69.56;94389.28;5110463;28;20130;-45
2021/11/16 10:07:14;;;;;;;16.52;9.85;;;;;;;7.56;69.42;94391.09;5109790;28;20027;-47
2021/11/16 10:09:42;;;;;;;13.57;8.70;;;;;;;7.37;70.15;94388.16;5110000;28;20024;-47
2021/11/16 10:12:09;;;;;;;13.13;8.97;;;;;;;7.50;69.65;94395.84;5109852;28;20038;-47
2021/11/16 10:14:35;;;;;;;17.02;9.63;;;;;;;7.40;71.04;94395.41;5110142;28;20409;-48
2021/11/16 10:17:00;;;;;;;13.05;8.25;;;;;;;7.50;69.98;94396.63;5091268;28;20034;-48
2021/11/16 10:19:26;;;;;;;14.52;8.75;;;;;;;7.58;70.01;94381.09;5109924;28;20036;-46
2021/11/16 10:21:51;;;;;;;15.35;9.15;;;;;;;7.62;70.18;94376.06;5110278;28;20073;-47
2021/11/16 10:24:37;;;;;;;16.90;11.23;;;;;;;7.77;69.49;94366.75;5110238;28;20059;-53
2021/11/16 10:27:33;;;;;;;10.95;7.22;;;;;;;7.79;69.23;94373.25;5109586;28;20037;-47
2021/11/16 10:30:15;;;;;;;16.23;10.02;;;;;;;7.79;69.11;94356.00;5109747;28;20039;-49
2021/11/16 10:32:44;;;;;;;12.25;8.80;;;;;;;7.75;69.70;94361.78;5109556;28;20032;-49
2021/11/16 10:35:22;;;;;;;19.10;9.73;;;;;;;7.79;69.05;94354.00;5103588;28;20108;-47
2021/11/16 10:37:47;;;;;;;13.98;8.48;;;;;;;7.61;69.93;94352.59;5089017;28;20117;-47
2021/11/16 10:40:14;;;;;;;12.02;8.60;;;;;;;7.45;69.77;94328.69;5089022;28;20118;-47
2021/11/16 10:42:45;;;;;;;13.32;9.13;;;;;;;7.42;70.41;94346.19;5091541;28;20406;-46
2021/11/16 10:45:17;;;;;;;11.40;7.35;;;;;;;7.39;70.49;94341.72;5109541;28;20032;-46
2021/11/16 10:47:45;;;;;;;10.80;7.30;;;;;;;7.35;70.46;94343.97;5109693;28;20153;-46
2021/11/16 10:50:17;;;;;;;18.77;8.20;;;;;;;7.23;71.06;94341.78;5109099;28;20024;-48
2021/11/16 10:52:43;;;;;;;17.20;9.70;;;;;;;7.16;71.44;94342.31;5108359;28;20186;-47
2021/11/16 10:55:10;;;;;;;13.75;8.80;;;;;;;7.04;72.47;94341.59;5109495;28;20467;-47
2021/11/16 10:57:55;;;;;;;14.40;8.75;;;;;;;7.07;72.55;94343.34;5109727;28;20553;-47
2021/11/16 11:00:47;;;;;;;23.27;11.77;;;;;;;6.89;72.13;94341.88;5109899;28;20110;-46
2021/11/16 11:03:43;;;;;;;20.70;11.35;;;;;;;6.92;72.75;94353.09;5110065;28;20135;-46
2021/11/16 11:06:32;;;;;;;21.17;12.10;;;;;;;6.95;72.84;94341.13;5108608;28;20026;-46
2021/11/16 11:09:00;;;;;;;17.08;9.60;;;;;;;6.89;73.91;94343.88;5109893;28;20049;-45
2021/11/16 11:11:37;;;;;;;14.90;9.45;;;;;;;6.91;73.50;94343.41;5109987;28;20016;-42
2021/11/16 11:14:09;;;;;;;13.82;8.70;;;;;;;7.00;73.43;94345.84;5103402;28;20032;-44
2021/11/16 11:16:40;;;;;;;24.38;13.25;;;;;;;6.95;73.83;94336.41;5095636;28;20064;-39
2021/11/16 11:19:09;;;;;;;21.52;11.27;;;;;;;7.01;73.93;94339.88;5089541;28;20062;-41
2021/11/16 11:21:49;;;;;;;31.88;15.48;;;;;;;6.98;74.16;94343.59;5089980;28;20102;-44
2021/11/16 11:24:20;;;;;;;26.75;14.95;;;;;;;6.77;73.84;94329.44;5089374;28;20605;-41
2021/11/16 11:26:59;;;;;;;51.92;21.77;;;;;;;6.88;74.28;94334.16;5089290;28;20051;-43
2021/11/16 11:32:14;;;;;;;38.85;22.83;;;;;;;6.93;74.12;94338.16;5071846;28;20036;-42
2021/11/16 11:34:47;;;;;;;13.20;8.80;;;;;;;6.84;74.37;94337.16;5105615;28;20034;-43
2021/11/16 11:37:22;;;;;;;15.88;10.68;;;;;;;6.84;74.26;94336.41;5109172;28;20088;-42
2021/11/16 11:40:02;;;;;;;29.48;12.65;;;;;;;6.88;74.71;94329.44;5109895;28;20051;-43
2021/11/16 11:42:29;;;;;;;13.93;8.70;;;;;;;6.94;73.84;94328.63;5109190;28;20518;-43
2021/11/16 11:44:58;;;;;;;28.25;10.07;;;;;;;6.86;74.86;94320.91;5109285;28;20020;-44
2021/11/16 11:47:30;;;;;;;13.05;8.95;;;;;;;6.95;74.41;94330.91;5109362;28;20039;-42
2021/11/16 11:49:57;;;;;;;24.52;12.60;;;;;;;6.80;74.06;94320.19;5109521;28;20718;-45
2021/11/16 11:52:23;;;;;;;18.88;11.00;;;;;;;6.67;73.98;94332.97;5108113;28;20057;-45
2021/11/16 11:54:49;;;;;;;16.55;10.00;;;;;;;6.81;73.97;94334.66;5109205;28;20743;-44
2021/11/16 11:57:14;;;;;;;11.73;7.28;;;;;;;6.51;74.65;94342.72;5098249;28;20028;-42
2021/11/16 11:59:41;;;;;;;13.80;7.68;;;;;;;6.40;75.28;94334.50;5088804;28;20039;-46
2021/11/16 12:02:08;;;;;;;16.02;11.45;;;;;;;6.44;75.12;94331.50;5088591;28;20020;-44